Orbital elements of FENGYUN 1C DEB
| Launched | 9 May 1999 |
| Flight ended | – |
| Launch site | Taiyuan Space Center, PRC |
| Owner | People's Republic of China |
| NORAD ID | 30035 |
| Date fetched |
Epoch osculation |
Inc. [°] |
Ecc. | RA asc node [hr] |
Arg Peri. [°] |
Mean anom [°] |
Mean motion [rev/day] |
Abs. mag |
| Date fetched |
Epoch osculation |
Inc. [°] |
Ecc. | RA asc node [hr] |
Arg Peri. [°] |
Mean anom [°] |
Mean motion [rev/day] |
Abs. mag |
| 2026 May 05 17:57 | 2026 May 05 08:55:56 | 99.2763 | 0.01147 | 3.7509 | 3.9741 | 115.5767 | 14.37055 | – |
| 2026 May 04 17:57 | 2026 Apr 30 13:54:27 | 99.2761 | 0.01150 | 3.4066 | 17.8974 | 115.5767 | 14.37055 | – |
| 2026 May 03 17:57 | 2026 Apr 30 13:54:27 | 99.2761 | 0.01150 | 3.4066 | 17.8974 | 115.5767 | 14.37055 | – |
| 2026 May 02 17:57 | 2026 Apr 30 13:54:27 | 99.2761 | 0.01150 | 3.4066 | 17.8974 | 115.5767 | 14.37055 | – |
| 2026 May 01 17:56 | 2026 Apr 30 13:54:27 | 99.2761 | 0.01150 | 3.4066 | 17.8974 | 115.5767 | 14.37055 | – |
| 2026 Apr 30 17:56 | 2026 Apr 30 13:54:27 | 99.2761 | 0.01150 | 3.4066 | 17.8974 | 115.5767 | 14.37055 | – |
| 2026 Apr 29 17:57 | 2026 Apr 24 07:22:59 | 99.2756 | 0.01153 | 2.9561 | 36.0652 | 115.5767 | 14.37055 | – |
| 2026 Apr 28 17:56 | 2026 Apr 24 07:22:59 | 99.2756 | 0.01153 | 2.9561 | 36.0652 | 115.5767 | 14.37055 | – |
| 2026 Apr 27 17:58 | 2026 Apr 24 07:22:59 | 99.2756 | 0.01153 | 2.9561 | 36.0652 | 115.5767 | 14.37055 | – |
| 2026 Apr 26 17:58 | 2026 Apr 24 07:22:59 | 99.2756 | 0.01153 | 2.9561 | 36.0652 | 115.5767 | 14.37055 | – |
| 2026 Apr 25 17:58 | 2026 Apr 24 07:22:59 | 99.2756 | 0.01153 | 2.9561 | 36.0652 | 115.5767 | 14.37055 | – |
| 2026 Apr 24 17:59 | 2026 Apr 24 07:22:59 | 99.2756 | 0.01153 | 2.9561 | 36.0652 | 115.5767 | 14.37055 | – |
| 2026 Apr 23 17:57 | 2026 Apr 19 07:03:58 | 99.2754 | 0.01154 | 2.5960 | 50.5763 | 115.5767 | 14.37055 | – |
| 2026 Apr 22 17:57 | 2026 Apr 19 07:03:58 | 99.2754 | 0.01154 | 2.5960 | 50.5763 | 115.5767 | 14.37055 | – |
| 2026 Apr 21 17:57 | 2026 Apr 19 07:03:58 | 99.2754 | 0.01154 | 2.5960 | 50.5763 | 115.5767 | 14.37055 | – |
| 2026 Apr 20 17:57 | 2026 Apr 19 07:03:58 | 99.2754 | 0.01154 | 2.5960 | 50.5763 | 115.5767 | 14.37055 | – |
| 2026 Apr 19 17:58 | 2026 Apr 19 07:03:58 | 99.2754 | 0.01154 | 2.5960 | 50.5763 | 115.5767 | 14.37055 | – |
| 2026 Apr 18 17:56 | 2026 Apr 13 07:21:35 | 99.2748 | 0.01155 | 2.1659 | 67.8755 | 115.5767 | 14.37055 | – |
| 2026 Apr 16 17:57 | 2026 Apr 13 07:21:35 | 99.2748 | 0.01155 | 2.1659 | 67.8755 | 115.5767 | 14.37055 | – |
| 2026 Apr 14 17:57 | 2026 Apr 13 07:21:35 | 99.2748 | 0.01155 | 2.1659 | 67.8755 | 115.5767 | 14.37055 | – |
| 2026 Apr 13 17:57 | 2026 Apr 13 07:21:35 | 99.2748 | 0.01155 | 2.1659 | 67.8755 | 115.5767 | 14.37055 | – |
| 2026 Apr 12 17:57 | 2026 Apr 08 07:02:34 | 99.2745 | 0.01156 | 1.8059 | 82.3555 | 115.5767 | 14.37055 | – |
| 2026 Apr 11 17:57 | 2026 Apr 08 07:02:34 | 99.2745 | 0.01156 | 1.8059 | 82.3555 | 115.5767 | 14.37055 | – |
| 2026 Apr 10 17:58 | 2026 Apr 08 07:02:34 | 99.2745 | 0.01156 | 1.8059 | 82.3555 | 115.5767 | 14.37055 | – |
| 2026 Apr 09 18:01 | 2026 Apr 08 07:02:34 | 99.2745 | 0.01156 | 1.8059 | 82.3555 | 115.5767 | 14.37055 | – |
| 2026 Apr 08 17:57 | 2026 Apr 08 07:02:34 | 99.2745 | 0.01156 | 1.8059 | 82.3555 | 115.5767 | 14.37055 | – |